createdAt,value
2023-01-10T00:02:12.436Z,2.45
2023-01-10T00:05:12.571Z,1.8
2023-01-10T00:08:12.504Z,3.15
2023-01-10T00:11:12.601Z,1.8
2023-01-10T00:14:12.576Z,1.8
2023-01-10T00:17:12.464Z,1.9
2023-01-10T00:20:12.484Z,1.95
2023-01-10T00:23:12.477Z,1.8
2023-01-10T00:26:12.557Z,3.1
2023-01-10T00:29:12.463Z,2.9
2023-01-10T00:32:12.489Z,1.95
2023-01-10T00:35:12.613Z,2.55
2023-01-10T00:38:12.530Z,2.85
2023-01-10T00:41:12.504Z,2.55
2023-01-10T00:44:12.532Z,2.5
2023-01-10T00:47:12.595Z,2.35
2023-01-10T00:50:12.631Z,2.4
2023-01-10T00:53:12.492Z,2.9
2023-01-10T00:56:12.495Z,3.35
2023-01-10T00:59:12.556Z,1.85
2023-01-10T01:02:12.782Z,2.25
2023-01-10T01:05:12.619Z,2.4
2023-01-10T01:08:12.528Z,2.25
2023-01-10T01:11:12.620Z,2.35
2023-01-10T01:14:14.311Z,1.75
2023-01-10T01:17:12.615Z,2.25
2023-01-10T01:20:12.549Z,1.8
2023-01-10T01:23:12.541Z,2.5
2023-01-10T01:26:12.533Z,2.1
2023-01-10T01:29:12.571Z,3.3
2023-01-10T01:32:12.836Z,2.3
2023-01-10T01:35:12.634Z,2.7
2023-01-10T01:38:12.596Z,3.3
2023-01-10T01:41:12.641Z,2.5
2023-01-10T01:44:12.596Z,2.35
2023-01-10T01:47:12.645Z,2.35
2023-01-10T01:50:12.591Z,2.55
2023-01-10T01:53:12.560Z,2.2
2023-01-10T01:56:12.649Z,2.5
2023-01-10T01:59:12.609Z,2.4
2023-01-10T02:02:12.596Z,2.3
2023-01-10T02:05:12.544Z,2.5
2023-01-10T02:08:12.644Z,2.2
2023-01-10T02:11:12.651Z,2
2023-01-10T02:14:12.629Z,2.35
2023-01-10T02:17:12.535Z,2.1
2023-01-10T02:20:12.541Z,1.55
2023-01-10T02:23:12.677Z,1.9
2023-01-10T02:26:12.662Z,1.35
2023-01-10T02:29:12.730Z,1.6
2023-01-10T02:32:12.577Z,1.95
2023-01-10T02:35:12.655Z,2.3
2023-01-10T02:38:12.612Z,1.45
2023-01-10T02:41:12.651Z,1.4
2023-01-10T02:44:12.587Z,1.3
2023-01-10T02:47:12.646Z,1.5
2023-01-10T02:50:12.617Z,1.55
2023-01-10T02:53:13.051Z,1.45
2023-01-10T02:56:12.653Z,2.2
2023-01-10T02:59:12.665Z,1.75
2023-01-10T03:02:12.651Z,2.25
2023-01-10T03:05:12.767Z,2.7
2023-01-10T03:08:12.744Z,1.95
2023-01-10T03:11:12.628Z,1.65
2023-01-10T03:14:12.713Z,2.45
2023-01-10T03:17:12.658Z,1.8
2023-01-10T03:20:12.761Z,2.1
2023-01-10T03:23:12.717Z,2.65
2023-01-10T03:26:13.130Z,2.65
2023-01-10T03:29:12.722Z,2.25
2023-01-10T03:32:12.710Z,3.1
2023-01-10T03:35:12.689Z,2.2
2023-01-10T03:38:12.928Z,2
2023-01-10T03:41:12.705Z,2.55
2023-01-10T03:44:12.682Z,2.8
2023-01-10T03:47:12.720Z,2.8
2023-01-10T03:50:12.758Z,3.6
2023-01-10T03:53:12.754Z,2.3
2023-01-10T03:56:13.122Z,3.2
2023-01-10T03:59:12.596Z,3.05
2023-01-10T04:02:12.772Z,2.6
2023-01-10T04:05:12.719Z,2.95
2023-01-10T04:08:12.644Z,2.75
2023-01-10T04:11:12.793Z,2.8
2023-01-10T04:14:12.808Z,2.75
2023-01-10T04:17:12.813Z,2.6
2023-01-10T04:20:12.644Z,2.4
2023-01-10T04:23:12.770Z,2.65
2023-01-10T04:26:12.685Z,2.65
2023-01-10T04:29:12.683Z,2.1
2023-01-10T04:32:12.669Z,2.5
2023-01-10T04:35:12.691Z,2.8
2023-01-10T04:38:12.786Z,2.25
2023-01-10T04:41:12.757Z,2.55
2023-01-10T04:44:12.710Z,2.5
2023-01-10T04:47:12.679Z,1.95
2023-01-10T04:50:12.778Z,2.1
2023-01-10T04:53:12.729Z,2.5
2023-01-10T04:56:12.649Z,2.6
2023-01-10T04:59:12.715Z,2.35
2023-01-10T05:02:12.921Z,2.55
2023-01-10T05:05:12.742Z,2.4
2023-01-10T05:08:12.678Z,2.6
2023-01-10T05:11:12.672Z,3.8
2023-01-10T05:14:13.064Z,2.65
2023-01-10T05:17:12.770Z,3.1
2023-01-10T05:20:12.684Z,2.9
2023-01-10T05:23:12.849Z,3.05
2023-01-10T05:26:12.804Z,2.4
2023-01-10T05:29:12.811Z,2.9
2023-01-10T05:32:12.764Z,2.4
2023-01-10T05:35:12.671Z,3.75
2023-01-10T05:38:12.787Z,2.85
2023-01-10T05:41:12.723Z,2.65
2023-01-10T05:44:15.610Z,2.05
2023-01-10T05:47:12.804Z,2.5
2023-01-10T05:50:12.802Z,2.45
2023-01-10T05:53:12.806Z,1.65
2023-01-10T05:56:12.722Z,2.9
2023-01-10T05:59:27.953Z,2.2
2023-01-10T06:02:13.013Z,2.35
2023-01-10T06:05:32.962Z,2.25
2023-01-10T06:08:14.483Z,1.95
2023-01-10T06:11:12.782Z,2.45
2023-01-10T06:14:12.870Z,1.55
2023-01-10T06:17:12.787Z,2.25
2023-01-10T06:20:12.862Z,1.85
2023-01-10T06:23:12.728Z,2.25
2023-01-10T06:26:13.921Z,2.3
2023-01-10T06:29:12.802Z,2.35
2023-01-10T06:32:12.917Z,2.65
2023-01-10T06:35:12.888Z,1.65
2023-01-10T06:38:12.886Z,2.1
2023-01-10T06:41:14.863Z,2.95
2023-01-10T06:44:12.787Z,1.8
2023-01-10T06:47:12.856Z,2.3
2023-01-10T06:50:12.859Z,2.05
2023-01-10T06:53:12.904Z,2.4
2023-01-10T06:56:12.976Z,2.25
2023-01-10T06:59:13.016Z,2.05
2023-01-10T07:02:15.322Z,2.3
2023-01-10T07:05:12.899Z,2.25
2023-01-10T07:08:12.792Z,1.95
2023-01-10T07:11:13.218Z,2.2
2023-01-10T07:14:12.887Z,2.05
2023-01-10T07:17:12.784Z,2.15
2023-01-10T07:20:12.876Z,2.25
2023-01-10T07:23:12.897Z,2.15
2023-01-10T07:26:12.917Z,2.6
2023-01-10T07:29:12.893Z,1.75
2023-01-10T07:32:21.224Z,1.9
2023-01-10T07:35:12.928Z,1.2
2023-01-10T07:38:12.879Z,2
2023-01-10T07:41:12.901Z,2.5
2023-01-10T07:44:12.954Z,2.15
2023-01-10T07:47:12.945Z,2.3
2023-01-10T07:50:12.873Z,2
2023-01-10T07:53:12.896Z,2.3
2023-01-10T07:56:12.933Z,1.2
2023-01-10T07:59:12.904Z,1.9
2023-01-10T08:02:12.979Z,1.65
2023-01-10T08:05:12.978Z,2
2023-01-10T08:08:12.990Z,1.6
2023-01-10T08:11:12.885Z,1.2
2023-01-10T08:14:12.947Z,1.6
2023-01-10T08:17:12.909Z,1.55
2023-01-10T08:20:12.910Z,1.6
2023-01-10T08:23:13.023Z,1.75
2023-01-10T08:26:12.968Z,0.7
2023-01-10T08:29:12.933Z,1.55
2023-01-10T08:32:12.915Z,1.8
2023-01-10T08:35:12.992Z,0.85
2023-01-10T08:38:13.009Z,1.15
2023-01-10T08:41:12.841Z,0.45
2023-01-10T08:44:14.853Z,1.5
2023-01-10T08:47:13.019Z,1.15
2023-01-10T08:50:15.884Z,1.45
2023-01-10T08:53:12.900Z,1.2
2023-01-10T08:56:13.041Z,1.35
2023-01-10T08:59:14.678Z,0.85
2023-01-10T09:02:13.029Z,1.75
2023-01-10T09:05:26.936Z,1.45
2023-01-10T09:08:12.962Z,2.05
2023-01-10T09:11:13.025Z,2.35
2023-01-10T09:14:13.362Z,1.95
2023-01-10T09:17:12.909Z,0.95
2023-01-10T09:20:13.031Z,1.75
2023-01-10T09:23:13.118Z,1
2023-01-10T09:26:13.052Z,1.05
2023-01-10T09:29:13.039Z,1.1
2023-01-10T09:32:13.075Z,1.75
2023-01-10T09:35:12.946Z,2.55
2023-01-10T09:38:12.985Z,1.75
2023-01-10T09:41:13.047Z,1.75
2023-01-10T09:44:13.081Z,1.75
2023-01-10T09:47:22.703Z,1.25
2023-01-10T09:50:12.966Z,2.05
2023-01-10T09:53:15.728Z,2.75
2023-01-10T09:56:12.945Z,2.2
2023-01-10T09:59:13.033Z,1.65
2023-01-10T10:02:13.049Z,1.8
2023-01-10T10:05:12.963Z,2.05
2023-01-10T10:08:13.090Z,0.8
2023-01-10T10:11:13.102Z,1.75
2023-01-10T10:14:13.018Z,3.1
2023-01-10T10:17:13.025Z,2.3
2023-01-10T10:20:13.134Z,1.2
2023-01-10T10:23:15.520Z,2.8
2023-01-10T10:26:13.109Z,2.15
2023-01-10T10:29:13.216Z,1.35
2023-01-10T10:32:13.064Z,1.55
2023-01-10T10:35:12.992Z,0.85
2023-01-10T10:38:13.037Z,1.95
2023-01-10T10:41:13.090Z,1.45
2023-01-10T10:44:13.975Z,2
2023-01-10T10:47:12.927Z,1.85
2023-01-10T10:50:15.918Z,1.4
2023-01-10T10:53:13.033Z,1.8
2023-01-10T10:56:13.166Z,2.65
2023-01-10T10:59:13.155Z,2.05
2023-01-10T11:02:13.117Z,1.25
2023-01-10T11:05:13.119Z,1.1
2023-01-10T11:08:13.084Z,2
2023-01-10T11:11:13.080Z,1.35
2023-01-10T11:14:13.066Z,1.45
2023-01-10T11:17:13.052Z,1.2
2023-01-10T11:20:13.069Z,1.4
2023-01-10T11:23:13.141Z,1.1
2023-01-10T11:26:13.134Z,0.95
2023-01-10T11:29:13.145Z,1.35
2023-01-10T11:32:13.163Z,1.45
2023-01-10T11:35:13.173Z,1.9
2023-01-10T11:38:13.040Z,1.95
2023-01-10T11:41:13.110Z,1.45
2023-01-10T11:44:13.060Z,1.05
2023-01-10T11:47:13.147Z,1.9
2023-01-10T11:50:13.195Z,1.35
2023-01-10T11:53:13.178Z,1.25
2023-01-10T11:56:13.140Z,1.85
2023-01-10T11:59:13.173Z,1.5
2023-01-10T12:02:13.208Z,2.3
2023-01-10T12:05:13.218Z,1.35
2023-01-10T12:08:13.136Z,1.9
2023-01-10T12:11:13.077Z,1.1
2023-01-10T12:14:13.630Z,1.85
2023-01-10T12:17:13.220Z,1.95
2023-01-10T12:20:16.462Z,1.8
2023-01-10T12:23:15.832Z,2.05
2023-01-10T12:26:13.440Z,1.9
2023-01-10T12:29:13.196Z,2.3
2023-01-10T12:32:13.050Z,1.9
2023-01-10T12:35:13.064Z,2.3
2023-01-10T12:38:13.109Z,3.4
2023-01-10T12:41:13.109Z,1.95
2023-01-10T12:44:13.158Z,2.45
2023-01-10T12:47:14.768Z,1.9
2023-01-10T12:50:13.056Z,2.15
2023-01-10T12:53:13.224Z,2.15
2023-01-10T12:56:13.802Z,1.65
2023-01-10T12:59:13.222Z,1.25
2023-01-10T13:02:13.245Z,1
2023-01-10T13:05:13.346Z,1.45
2023-01-10T13:08:13.184Z,1.65
2023-01-10T13:11:13.173Z,1.1
2023-01-10T13:14:13.191Z,1.6
2023-01-10T13:17:13.164Z,2.3
2023-01-10T13:20:13.368Z,1.05
2023-01-10T13:23:13.166Z,0.95
2023-01-10T13:26:13.225Z,1.4
2023-01-10T13:29:13.254Z,1.95
2023-01-10T13:32:13.141Z,1.95
2023-01-10T13:35:13.200Z,1.75
2023-01-10T13:38:13.157Z,1.6
2023-01-10T13:41:13.382Z,0.8
2023-01-10T13:44:13.452Z,1.6
2023-01-10T13:47:13.250Z,1.55
2023-01-10T13:50:14.984Z,1.25
2023-01-10T13:53:13.238Z,0.35
2023-01-10T13:56:13.158Z,0.8
2023-01-10T13:59:13.154Z,1.6
2023-01-10T14:02:13.308Z,0.6
2023-01-10T14:05:13.241Z,0.75
2023-01-10T14:08:13.303Z,1.35
2023-01-10T14:11:13.253Z,0.8
2023-01-10T14:14:13.222Z,0.05
2023-01-10T14:17:13.195Z,0.5
2023-01-10T14:20:13.631Z,0.25
2023-01-10T14:23:13.326Z,0.3
2023-01-10T14:26:13.210Z,0.65
2023-01-10T14:29:13.533Z,0.4
2023-01-10T14:32:13.197Z,0.6
2023-01-10T14:35:13.185Z,0.7
2023-01-10T14:38:14.974Z,0.55
2023-01-10T14:41:13.316Z,0.1
2023-01-10T14:44:13.239Z,0.7
2023-01-10T14:47:13.298Z,0.15
2023-01-10T14:50:13.186Z,0.55
2023-01-10T14:53:13.303Z,0.3
2023-01-10T14:56:13.221Z,0.05
2023-01-10T14:59:15.730Z,0.35
2023-01-10T15:02:13.368Z,0.2
2023-01-10T15:05:13.224Z,1.15
2023-01-10T15:08:13.274Z,0.5
2023-01-10T15:11:13.297Z,0.85
2023-01-10T15:14:13.368Z,1.25
2023-01-10T15:17:13.346Z,0.55
2023-01-10T15:20:13.380Z,0.3
2023-01-10T15:23:13.173Z,0.3
2023-01-10T15:26:13.208Z,0.2
2023-01-10T15:29:13.337Z,0.2
2023-01-10T15:32:13.341Z,0.8
2023-01-10T15:35:23.843Z,0.75
2023-01-10T15:38:13.396Z,0.75
2023-01-10T15:41:13.334Z,0.6
2023-01-10T15:44:13.401Z,0.7
2023-01-10T15:47:13.332Z,0.9
2023-01-10T15:50:13.248Z,0.25
2023-01-10T15:53:13.381Z,1.3
2023-01-10T15:56:13.292Z,0.35
2023-01-10T15:59:13.339Z,0.95
2023-01-10T16:02:13.815Z,0.5
2023-01-10T16:05:13.331Z,0.65
2023-01-10T16:08:13.319Z,0.15
2023-01-10T16:11:13.305Z,0.45
2023-01-10T16:14:13.457Z,0.4
2023-01-10T16:17:13.339Z,0.65
2023-01-10T16:20:13.368Z,0.2
2023-01-10T16:23:13.326Z,0.35
2023-01-10T16:26:13.326Z,0.5
2023-01-10T16:29:13.400Z,0.3
2023-01-10T16:32:13.355Z,0.6
2023-01-10T16:35:13.369Z,0.2
2023-01-10T16:38:13.418Z,0.45
2023-01-10T16:41:13.425Z,0.4
2023-01-10T16:44:13.360Z,0.35
2023-01-10T16:47:13.355Z,0.3
2023-01-10T16:50:13.373Z,0.15
2023-01-10T16:53:13.380Z,0.25
2023-01-10T16:56:13.339Z,0.75
2023-01-10T16:59:13.473Z,0.6
2023-01-10T17:02:13.409Z,0.55
2023-01-10T17:05:16.490Z,0.4
2023-01-10T17:08:13.328Z,0.8
2023-01-10T17:11:13.358Z,0.75
2023-01-10T17:14:13.463Z,0.75
2023-01-10T17:17:13.371Z,1.1
2023-01-10T17:20:13.501Z,1.65
2023-01-10T17:23:13.456Z,0.9
2023-01-10T17:26:13.503Z,1.3
2023-01-10T17:29:13.397Z,1.05
2023-01-10T17:32:13.341Z,1.3
2023-01-10T17:35:13.401Z,1.05
2023-01-10T17:38:13.354Z,1.4
2023-01-10T17:41:13.409Z,0.7
2023-01-10T17:44:13.336Z,0.65
2023-01-10T17:47:13.336Z,0.55
2023-01-10T17:50:13.655Z,0.5
2023-01-10T17:53:13.720Z,0.65
2023-01-10T17:56:13.774Z,0.4
2023-01-10T17:59:14.108Z,0.2
2023-01-10T18:02:13.938Z,0.55
2023-01-10T18:05:13.478Z,0.4
2023-01-10T18:08:13.603Z,1.1
2023-01-10T18:11:13.564Z,0.6
2023-01-10T18:14:13.617Z,1.1
2023-01-10T18:17:13.799Z,1.15
2023-01-10T18:20:13.577Z,0.95
2023-01-10T18:23:13.475Z,0.95
2023-01-10T18:26:13.547Z,0.9
2023-01-10T18:29:13.479Z,0.5
2023-01-10T18:32:13.779Z,1.1
2023-01-10T18:35:13.544Z,1.1
2023-01-10T18:38:13.545Z,1.85
2023-01-10T18:41:13.643Z,1.15
2023-01-10T18:44:13.551Z,1.65
2023-01-10T18:47:13.428Z,1.05
2023-01-10T18:50:13.558Z,1
2023-01-10T18:53:13.593Z,0.45
2023-01-10T18:56:13.709Z,0.55
2023-01-10T18:59:13.764Z,0.45
2023-01-10T19:02:13.880Z,0.5
2023-01-10T19:05:13.703Z,0.5
2023-01-10T19:08:13.631Z,0.45
2023-01-10T19:11:16.723Z,0.45
2023-01-10T19:14:13.533Z,0.7
2023-01-10T19:17:13.486Z,0.3
2023-01-10T19:20:13.602Z,0.4
2023-01-10T19:23:13.538Z,0.65
2023-01-10T19:26:13.674Z,1
2023-01-10T19:29:13.655Z,0.45
2023-01-10T19:32:13.569Z,1.9
2023-01-10T19:35:13.728Z,0.65
2023-01-10T19:38:13.521Z,0.85
2023-01-10T19:41:13.542Z,0.6
2023-01-10T19:44:13.787Z,0.55
2023-01-10T19:47:13.653Z,1.9
2023-01-10T19:50:13.610Z,1.2
2023-01-10T19:53:13.457Z,0.85
2023-01-10T19:56:13.494Z,1.35
2023-01-10T19:59:13.560Z,0.7
2023-01-10T20:02:13.823Z,0.95
2023-01-10T20:05:13.538Z,1.4
2023-01-10T20:08:13.692Z,0.85
2023-01-10T20:11:13.597Z,1.25
2023-01-10T20:14:13.622Z,1.15
2023-01-10T20:17:13.493Z,0.65
2023-01-10T20:20:13.715Z,1.95
2023-01-10T20:23:13.680Z,1.8
2023-01-10T20:26:13.597Z,1.45
2023-01-10T20:29:13.540Z,2.4
2023-01-10T20:32:13.557Z,1.85
2023-01-10T20:35:13.520Z,2.05
2023-01-10T20:38:13.509Z,2.25
2023-01-10T20:41:13.612Z,1.55
2023-01-10T20:44:13.632Z,1.8
2023-01-10T20:47:13.560Z,1.95
2023-01-10T20:50:13.532Z,1.8
2023-01-10T20:53:13.575Z,1.85
2023-01-10T20:56:13.585Z,1.95
2023-01-10T20:59:13.567Z,1.7
2023-01-10T21:02:13.663Z,2
2023-01-10T21:05:13.616Z,1.7
2023-01-10T21:08:13.601Z,2.05
2023-01-10T21:11:13.697Z,2.4
2023-01-10T21:14:13.661Z,2.3
2023-01-10T21:17:13.821Z,1.7
2023-01-10T21:20:13.577Z,1.5
2023-01-10T21:23:13.636Z,1.85
2023-01-10T21:26:13.524Z,1.35
2023-01-10T21:29:14.406Z,1.15
2023-01-10T21:32:13.675Z,0.7
2023-01-10T21:35:13.538Z,0.8
2023-01-10T21:38:13.592Z,1.9
2023-01-10T21:41:13.925Z,1
2023-01-10T21:44:13.643Z,1.6
2023-01-10T21:47:13.597Z,1.8
2023-01-10T21:50:13.617Z,1.25
2023-01-10T21:53:13.499Z,2.2
2023-01-10T21:56:13.640Z,2.5
2023-01-10T21:59:13.748Z,2.25
2023-01-10T22:02:13.612Z,2
2023-01-10T22:05:13.557Z,1.5
2023-01-10T22:08:13.698Z,1.8
2023-01-10T22:11:13.543Z,2.3
2023-01-10T22:14:13.632Z,2.45
2023-01-10T22:17:13.689Z,1.45
2023-01-10T22:20:13.753Z,1.4
2023-01-10T22:23:13.615Z,1.9
2023-01-10T22:26:13.699Z,1.85
2023-01-10T22:29:13.665Z,1.65
2023-01-10T22:32:13.628Z,1.55
2023-01-10T22:35:13.676Z,1.6
2023-01-10T22:38:13.681Z,2.25
2023-01-10T22:41:13.647Z,2.2
2023-01-10T22:44:13.641Z,2.2
2023-01-10T22:47:13.691Z,1.9
2023-01-10T22:50:13.732Z,2.4
2023-01-10T22:53:13.609Z,2.6
2023-01-10T22:56:13.597Z,1.8
2023-01-10T22:59:13.615Z,1.45
2023-01-10T23:02:13.809Z,1.95
2023-01-10T23:05:13.598Z,2.1
2023-01-10T23:08:13.690Z,1.75
2023-01-10T23:11:13.708Z,1.2
2023-01-10T23:14:13.633Z,1.5
2023-01-10T23:17:13.712Z,2.25
2023-01-10T23:20:13.693Z,1.9
2023-01-10T23:23:13.736Z,1.5
2023-01-10T23:26:13.687Z,2.8
2023-01-10T23:29:13.951Z,0.9
2023-01-10T23:32:13.683Z,0.7
2023-01-10T23:35:13.793Z,1.6
2023-01-10T23:38:13.691Z,2.1
2023-01-10T23:41:13.779Z,1.75
2023-01-10T23:44:13.692Z,0.55
2023-01-10T23:47:13.704Z,1.2
2023-01-10T23:50:13.705Z,1.2
2023-01-10T23:53:13.703Z,1.45
2023-01-10T23:56:13.761Z,1.15
2023-01-10T23:59:13.767Z,1.85
